Time;durP1;ratioP1;P1;durP2;ratioP2;P2;SDS_P1;SDS_P2;PMS_P1;PMS_P2;Temp;Humidity;BMP_temperature;BMP_pressure;BME280_temperature;BME280_humidity;BME280_pressure;Samples;Min_cycle;Max_cycle;Signal;HPM_P1;HPM_P2
2022/06/20 00:01:00;;;;;;;0.40;0.40;;;13.40;99.90;;;;;;5054138;28;20044;-73
2022/06/20 00:03:36;;;;;;;0.40;0.40;;;13.20;99.90;;;;;;5054023;28;20084;-74
2022/06/20 00:06:01;;;;;;;0.40;0.40;;;13.20;99.90;;;;;;5054204;28;20053;-74
2022/06/20 00:08:27;;;;;;;0.40;0.40;;;13.20;99.90;;;;;;5054002;28;20057;-74
2022/06/20 00:10:53;;;;;;;0.40;0.40;;;13.20;99.90;;;;;;5053976;28;20045;-74
2022/06/20 00:13:31;;;;;;;0.40;0.40;;;13.20;99.90;;;;;;5053855;28;20048;-74
2022/06/20 00:15:57;;;;;;;0.40;0.40;;;13.20;99.90;;;;;;5054141;28;20060;-74
2022/06/20 00:18:24;;;;;;;0.40;0.40;;;13.20;99.90;;;;;;5054011;28;20102;-74
2022/06/20 00:20:49;;;;;;;0.40;0.40;;;13.20;99.90;;;;;;5053710;28;20049;-74
2022/06/20 00:23:15;;;;;;;0.30;0.30;;;13.20;99.90;;;;;;5053810;28;20037;-73
2022/06/20 00:25:41;;;;;;;0.30;0.30;;;13.20;99.90;;;;;;5054141;28;20045;-74
2022/06/20 00:28:08;;;;;;;0.65;0.60;;;13.10;99.90;;;;;;5053670;28;20071;-74
2022/06/20 00:30:35;;;;;;;0.30;0.30;;;13.10;99.90;;;;;;5053695;28;20126;-74
2022/06/20 00:33:01;;;;;;;0.40;0.40;;;13.00;99.90;;;;;;5052748;28;20124;-73
2022/06/20 00:35:26;;;;;;;0.50;0.50;;;12.90;99.90;;;;;;5053495;28;20183;-73
2022/06/20 00:37:55;;;;;;;0.40;0.40;;;12.90;99.90;;;;;;5053606;28;20056;-72
2022/06/20 00:40:29;;;;;;;0.40;0.40;;;12.90;99.90;;;;;;5053546;28;20044;-72
2022/06/20 00:42:55;;;;;;;0.30;0.30;;;12.80;99.90;;;;;;5053618;28;20457;-72
2022/06/20 00:45:23;;;;;;;0.40;0.40;;;12.80;99.90;;;;;;5053726;28;20422;-73
2022/06/20 00:47:51;;;;;;;0.30;0.30;;;12.70;99.90;;;;;;5053445;28;20473;-72
2022/06/20 00:50:28;;;;;;;0.40;0.40;;;12.80;99.90;;;;;;5053410;28;20131;-72
2022/06/20 00:53:29;;;;;;;0.30;0.30;;;12.80;99.90;;;;;;5053242;28;20048;-72
2022/06/20 00:56:18;;;;;;;0.50;0.50;;;12.70;99.90;;;;;;5049316;28;20489;-72
2022/06/20 00:59:09;;;;;;;0.40;0.40;;;12.70;99.90;;;;;;5052778;28;20088;-73
2022/06/20 01:01:39;;;;;;;0.40;0.40;;;12.80;99.90;;;;;;5053419;28;20127;-73
2022/06/20 01:04:15;;;;;;;0.75;0.75;;;12.80;99.90;;;;;;5053330;28;20037;-73
2022/06/20 01:06:49;;;;;;;0.40;0.40;;;12.80;99.90;;;;;;5053942;28;20056;-74
2022/06/20 01:09:18;;;;;;;0.40;0.40;;;12.80;99.90;;;;;;5053849;28;20049;-73
2022/06/20 01:11:49;;;;;;;0.40;0.40;;;12.80;99.90;;;;;;5053268;28;20045;-73
2022/06/20 01:14:27;;;;;;;0.40;0.40;;;12.80;99.90;;;;;;5053504;28;20150;-73
2022/06/20 01:16:57;;;;;;;0.40;0.40;;;12.80;99.90;;;;;;5053473;28;20045;-74
2022/06/20 01:19:43;;;;;;;0.40;0.40;;;12.80;99.90;;;;;;5053210;28;20053;-74
2022/06/20 01:22:32;;;;;;;0.40;0.40;;;12.80;99.90;;;;;;5052838;28;20548;-74
2022/06/20 01:25:27;;;;;;;0.30;0.30;;;12.80;99.90;;;;;;5015707;28;20053;-74
2022/06/20 01:27:53;;;;;;;0.40;0.40;;;12.80;99.90;;;;;;5053116;28;20136;-73
2022/06/20 01:30:23;;;;;;;0.40;0.40;;;12.80;99.90;;;;;;5053139;28;20056;-73
2022/06/20 01:32:49;;;;;;;0.30;0.30;;;12.80;99.90;;;;;;5052992;28;20128;-73
2022/06/20 01:38:02;;;;;;;0.40;0.40;;;12.90;99.90;;;;;;5053113;28;20049;-73
2022/06/20 01:40:29;;;;;;;0.40;0.40;;;12.70;99.90;;;;;;5052982;28;20048;-73
2022/06/20 01:42:55;;;;;;;0.40;0.40;;;12.70;99.90;;;;;;5052996;28;20080;-73
2022/06/20 01:48:12;;;;;;;0.40;0.40;;;12.60;99.90;;;;;;5056950;28;20057;-74
2022/06/20 01:50:39;;;;;;;0.40;0.40;;;12.70;99.90;;;;;;5056617;28;20148;-73
2022/06/20 01:53:07;;;;;;;0.40;0.40;;;12.70;99.90;;;;;;5056388;28;20436;-73
2022/06/20 01:55:35;;;;;;;0.40;0.40;;;12.70;99.90;;;;;;5056180;28;20469;-73
2022/06/20 01:58:41;;;;;;;0.40;0.40;;;12.80;99.90;;;;;;5056488;28;20056;-74
2022/06/20 02:01:11;;;;;;;0.40;0.40;;;12.80;99.90;;;;;;5055720;28;20049;-74
2022/06/20 02:03:40;;;;;;;0.40;0.40;;;12.80;99.90;;;;;;5056889;28;20392;-73
2022/06/20 02:06:08;;;;;;;0.40;0.40;;;12.80;99.90;;;;;;5055705;28;20060;-73
2022/06/20 02:08:36;;;;;;;0.40;0.40;;;12.80;99.90;;;;;;5056213;28;20099;-73
2022/06/20 02:11:08;;;;;;;0.40;0.40;;;12.80;99.90;;;;;;5056195;28;20071;-74
2022/06/20 02:13:38;;;;;;;0.40;0.40;;;12.80;99.90;;;;;;5056088;28;20049;-73
2022/06/20 02:16:07;;;;;;;0.38;0.38;;;12.90;99.90;;;;;;5056057;28;20053;-73
2022/06/20 02:18:37;;;;;;;0.40;0.40;;;12.80;99.90;;;;;;5037968;28;20551;-74
2022/06/20 02:21:05;;;;;;;0.40;0.40;;;12.90;99.90;;;;;;5055847;28;20082;-73
2022/06/20 02:23:36;;;;;;;0.40;0.40;;;12.90;99.90;;;;;;5055961;28;20044;-73
2022/06/20 02:26:04;;;;;;;0.30;0.30;;;12.90;99.90;;;;;;5056328;28;20041;-74
2022/06/20 02:28:45;;;;;;;0.40;0.40;;;12.90;99.90;;;;;;5056088;28;20041;-73
2022/06/20 02:31:11;;;;;;;0.40;0.40;;;12.90;99.90;;;;;;5055604;28;20508;-73
2022/06/20 02:33:37;;;;;;;0.40;0.40;;;13.00;99.90;;;;;;5055962;28;20037;-73
2022/06/20 02:36:05;;;;;;;0.40;0.40;;;13.00;99.90;;;;;;5055581;28;20533;-73
2022/06/20 02:38:31;;;;;;;0.40;0.40;;;12.90;99.90;;;;;;5055731;28;20094;-74
2022/06/20 02:40:58;;;;;;;0.30;0.30;;;13.00;99.90;;;;;;5055577;28;20119;-73
2022/06/20 02:43:34;;;;;;;0.40;0.40;;;13.00;99.90;;;;;;5055327;28;20422;-73
2022/06/20 02:46:01;;;;;;;0.40;0.40;;;12.90;99.90;;;;;;5055289;28;20493;-73
2022/06/20 02:48:30;;;;;;;0.40;0.40;;;13.00;99.90;;;;;;5055453;28;20053;-73
2022/06/20 02:51:02;;;;;;;0.40;0.40;;;12.90;99.90;;;;;;5055264;28;20413;-74
2022/06/20 02:53:53;;;;;;;0.30;0.30;;;12.90;99.90;;;;;;5055369;28;20044;-73
2022/06/20 02:56:21;;;;;;;0.40;0.40;;;12.90;99.90;;;;;;5045755;28;20096;-73
2022/06/20 02:58:52;;;;;;;0.40;0.40;;;12.90;99.90;;;;;;5055571;28;20037;-73
2022/06/20 03:01:27;;;;;;;0.40;0.40;;;12.90;99.90;;;;;;5055211;28;20041;-73
2022/06/20 03:03:57;;;;;;;0.40;0.40;;;12.80;99.90;;;;;;5055239;28;20045;-73
2022/06/20 03:06:28;;;;;;;0.40;0.40;;;12.80;99.90;;;;;;5055222;28;20061;-73
2022/06/20 03:08:55;;;;;;;0.40;0.40;;;12.70;99.90;;;;;;5055124;28;20392;-73
2022/06/20 03:11:23;;;;;;;0.40;0.40;;;12.70;99.90;;;;;;5055043;28;20087;-73
2022/06/20 03:13:49;;;;;;;0.30;0.30;;;12.60;99.90;;;;;;5054920;28;20137;-73
2022/06/20 03:16:15;;;;;;;0.40;0.40;;;12.50;99.90;;;;;;5055010;28;20091;-73
2022/06/20 03:18:43;;;;;;;0.40;0.40;;;12.50;99.90;;;;;;5054859;28;20052;-73
2022/06/20 03:21:10;;;;;;;0.40;0.40;;;12.60;99.90;;;;;;5054893;28;20080;-73
2022/06/20 03:23:35;;;;;;;0.30;0.30;;;12.50;99.90;;;;;;5054889;28;20041;-73
2022/06/20 03:26:08;;;;;;;0.40;0.40;;;12.40;99.90;;;;;;5055065;28;20499;-73
2022/06/20 03:28:33;;;;;;;0.40;0.40;;;12.40;99.90;;;;;;5054942;28;20067;-73
2022/06/20 03:31:00;;;;;;;0.30;0.30;;;12.40;99.90;;;;;;5054502;28;20469;-73
2022/06/20 03:33:26;;;;;;;0.40;0.40;;;12.30;99.90;;;;;;5054484;28;20045;-73
2022/06/20 03:35:58;;;;;;;0.40;0.40;;;12.30;99.90;;;;;;5054605;28;20052;-73
2022/06/20 03:38:25;;;;;;;0.40;0.40;;;12.20;99.90;;;;;;5054868;28;20083;-73
2022/06/20 03:40:50;;;;;;;0.30;0.30;;;12.20;99.90;;;;;;5054490;28;20045;-73
2022/06/20 03:43:20;;;;;;;0.40;0.40;;;12.20;99.90;;;;;;5054607;28;20041;-73
2022/06/20 03:45:52;;;;;;;0.40;0.40;;;12.10;99.90;;;;;;5054314;28;20051;-72
2022/06/20 03:48:22;;;;;;;0.40;0.40;;;12.10;99.90;;;;;;5054453;28;20052;-73
2022/06/20 03:50:59;;;;;;;0.43;0.43;;;12.10;99.90;;;;;;5054285;28;20052;-74
2022/06/20 03:53:35;;;;;;;0.40;0.40;;;12.00;99.90;;;;;;5054317;28;20159;-73
2022/06/20 03:56:13;;;;;;;0.40;0.40;;;12.00;99.90;;;;;;5054374;28;20122;-73
2022/06/20 03:59:13;;;;;;;0.38;0.38;;;12.00;99.90;;;;;;5054128;28;20053;-74
2022/06/20 04:01:45;;;;;;;0.40;0.40;;;12.00;99.90;;;;;;5044146;28;20497;-73
2022/06/20 04:04:27;;;;;;;0.40;0.40;;;12.00;99.90;;;;;;5054308;28;20045;-73
2022/06/20 04:06:59;;;;;;;0.40;0.40;;;12.00;99.90;;;;;;5054618;28;20061;-73
2022/06/20 04:12:43;;;;;;;0.40;0.40;;;12.00;99.90;;;;;;5053922;28;20094;-73
2022/06/20 04:15:23;;;;;;;0.40;0.40;;;11.90;99.90;;;;;;5053945;28;20397;-74
2022/06/20 04:20:57;;;;;;;0.40;0.40;;;11.80;99.90;;;;;;5053713;28;20493;-71
2022/06/20 04:23:47;;;;;;;0.40;0.40;;;11.80;99.90;;;;;;5053790;28;20493;-72
2022/06/20 04:26:20;;;;;;;0.40;0.40;;;11.80;99.90;;;;;;5053824;28;20067;-74
2022/06/20 04:29:12;;;;;;;0.40;0.40;;;11.80;99.90;;;;;;5053732;28;20492;-73
2022/06/20 04:31:45;;;;;;;0.40;0.40;;;11.80;99.90;;;;;;5049722;28;20099;-72
2022/06/20 04:34:39;;;;;;;0.40;0.40;;;11.80;99.90;;;;;;5054069;28;20067;-72
2022/06/20 04:37:19;;;;;;;0.40;0.40;;;11.80;99.90;;;;;;5053968;28;20047;-72
2022/06/20 04:39:47;;;;;;;0.40;0.40;;;12.00;99.90;;;;;;5053642;28;20044;-72
2022/06/20 04:42:18;;;;;;;0.40;0.40;;;12.00;99.90;;;;;;5053470;28;20044;-72
2022/06/20 04:45:12;;;;;;;0.40;0.40;;;12.00;99.90;;;;;;5053605;28;20045;-72
2022/06/20 04:47:47;;;;;;;0.50;0.50;;;12.00;99.90;;;;;;5053760;28;20060;-72
2022/06/20 04:50:16;;;;;;;0.40;0.40;;;12.00;99.90;;;;;;5053539;28;20527;-72
2022/06/20 04:52:43;;;;;;;0.40;0.40;;;12.10;99.90;;;;;;5053345;28;20041;-72
2022/06/20 04:55:14;;;;;;;0.40;0.40;;;12.10;99.90;;;;;;5053495;28;20409;-72
2022/06/20 04:57:40;;;;;;;0.40;0.40;;;12.20;99.90;;;;;;5053403;28;20478;-72
2022/06/20 05:00:09;;;;;;;0.40;0.40;;;12.30;99.90;;;;;;5053674;28;20095;-72
2022/06/20 05:02:35;;;;;;;0.40;0.40;;;12.40;99.90;;;;;;5053379;28;20136;-73
2022/06/20 05:05:04;;;;;;;0.40;0.40;;;12.50;99.90;;;;;;5053147;28;20544;-73
2022/06/20 05:07:35;;;;;;;0.40;0.40;;;12.40;99.90;;;;;;5053281;28;20374;-73
2022/06/20 05:10:11;;;;;;;0.40;0.40;;;12.60;99.90;;;;;;5053609;28;20114;-73
2022/06/20 05:12:52;;;;;;;0.40;0.40;;;12.50;99.90;;;;;;5053271;28;20047;-73
2022/06/20 05:15:31;;;;;;;0.40;0.40;;;12.50;99.90;;;;;;5053465;28;20058;-73
2022/06/20 05:18:01;;;;;;;0.40;0.40;;;12.60;99.90;;;;;;5053236;28;20037;-73
2022/06/20 05:20:32;;;;;;;0.40;0.40;;;12.60;99.90;;;;;;5055426;28;20049;-73
2022/06/20 05:23:11;;;;;;;0.40;0.40;;;12.60;99.90;;;;;;5057194;28;20544;-73
2022/06/20 05:25:37;;;;;;;4.28;1.95;;;12.80;99.90;;;;;;5057098;28;20083;-72
2022/06/20 05:28:09;;;;;;;0.40;0.40;;;13.10;99.90;;;;;;5057097;28;20087;-73
2022/06/20 05:30:36;;;;;;;0.32;0.32;;;13.50;99.90;;;;;;5057074;28;20044;-73
2022/06/20 05:33:11;;;;;;;0.40;0.40;;;13.90;99.90;;;;;;5057460;28;20484;-73
2022/06/20 05:36:18;;;;;;;0.40;0.40;;;14.20;99.90;;;;;;5056685;28;20539;-73
2022/06/20 05:38:59;;;;;;;0.30;0.30;;;14.60;99.90;;;;;;4975855;28;20124;-73
2022/06/20 05:41:24;;;;;;;0.30;0.30;;;15.20;99.90;;;;;;5049078;28;20513;-73
2022/06/20 05:43:50;;;;;;;0.40;0.40;;;15.60;99.90;;;;;;5056716;28;20047;-73
2022/06/20 05:46:36;;;;;;;0.40;0.40;;;15.90;99.90;;;;;;5056663;28;20392;-74
2022/06/20 05:49:11;;;;;;;0.30;0.30;;;16.30;99.90;;;;;;5056671;28;20049;-73
2022/06/20 05:51:40;;;;;;;0.30;0.30;;;16.70;99.90;;;;;;5057054;28;20045;-73
2022/06/20 05:54:14;;;;;;;0.30;0.30;;;17.00;99.90;;;;;;5056456;28;20045;-72
2022/06/20 05:56:54;;;;;;;0.30;0.30;;;17.30;99.90;;;;;;5056458;28;20481;-72
2022/06/20 05:59:38;;;;;;;0.30;0.30;;;17.50;99.90;;;;;;5056485;28;20041;-73
2022/06/20 06:02:31;;;;;;;0.30;0.30;;;17.70;99.90;;;;;;5056367;28;20095;-73
2022/06/20 06:05:05;;;;;;;0.30;0.30;;;17.80;99.90;;;;;;5055833;28;20389;-73
2022/06/20 06:07:40;;;;;;;0.60;0.60;;;17.80;99.90;;;;;;5056404;28;20045;-72
2022/06/20 06:10:24;;;;;;;0.30;0.30;;;17.70;99.90;;;;;;5056182;28;20508;-73
2022/06/20 06:12:58;;;;;;;0.50;0.50;;;17.50;99.90;;;;;;5056111;28;20036;-73
2022/06/20 06:18:42;;;;;;;0.38;0.38;;;17.60;99.90;;;;;;5055917;28;20092;-72
2022/06/20 06:21:08;;;;;;;0.30;0.30;;;17.70;99.90;;;;;;5056081;28;20128;-73
2022/06/20 06:23:34;;;;;;;0.30;0.30;;;17.80;99.90;;;;;;5056296;28;20048;-73
2022/06/20 06:26:00;;;;;;;0.97;0.87;;;18.00;99.90;;;;;;5056137;28;20049;-73
2022/06/20 06:28:28;;;;;;;0.30;0.30;;;17.90;99.90;;;;;;5055768;28;20524;-73
2022/06/20 06:31:00;;;;;;;1.08;0.88;;;17.90;99.90;;;;;;5054712;28;20080;-73
2022/06/20 06:33:35;;;;;;;0.30;0.30;;;17.70;99.90;;;;;;5055738;28;20049;-73
2022/06/20 06:36:09;;;;;;;0.30;0.30;;;17.50;99.90;;;;;;5055726;28;20041;-73
2022/06/20 06:38:55;;;;;;;0.30;0.30;;;17.40;99.90;;;;;;5055753;28;20041;-73
2022/06/20 06:41:32;;;;;;;0.30;0.30;;;17.50;99.90;;;;;;5055748;28;20059;-73
2022/06/20 06:43:59;;;;;;;0.30;0.30;;;17.50;99.90;;;;;;5056132;28;20405;-73
2022/06/20 06:46:31;;;;;;;0.30;0.30;;;17.60;99.90;;;;;;5055472;28;20045;-73
2022/06/20 06:49:19;;;;;;;0.40;0.40;;;17.40;99.90;;;;;;5055370;28;20493;-73
2022/06/20 06:51:51;;;;;;;0.30;0.30;;;17.50;99.90;;;;;;5055261;28;20481;-73
2022/06/20 06:54:42;;;;;;;0.30;0.30;;;17.50;99.90;;;;;;5055859;28;20451;-73
2022/06/20 06:57:23;;;;;;;0.30;0.30;;;17.30;99.90;;;;;;5046213;28;20057;-73
2022/06/20 07:00:15;;;;;;;0.30;0.30;;;17.30;99.90;;;;;;5055268;28;20068;-73
2022/06/20 07:02:44;;;;;;;0.40;0.40;;;17.40;99.90;;;;;;5044695;28;20056;-73
2022/06/20 07:05:33;;;;;;;0.40;0.40;;;17.40;99.90;;;;;;5055109;28;20059;-73
2022/06/20 07:08:11;;;;;;;0.30;0.30;;;17.30;99.90;;;;;;5055160;28;20128;-73
2022/06/20 07:10:52;;;;;;;1.00;1.00;;;17.00;99.90;;;;;;5055047;28;20106;-73
2022/06/20 07:13:23;;;;;;;0.40;0.40;;;16.90;99.90;;;;;;5055453;28;20081;-73
2022/06/20 07:15:54;;;;;;;0.30;0.30;;;16.90;99.90;;;;;;5055330;28;20060;-73
2022/06/20 07:18:41;;;;;;;0.50;0.50;;;17.30;99.90;;;;;;5055217;28;20052;-73
2022/06/20 07:21:10;;;;;;;0.40;0.40;;;17.50;99.90;;;;;;5054905;28;20049;-73
2022/06/20 07:23:35;;;;;;;0.30;0.30;;;17.80;99.90;;;;;;5037924;28;20060;-73
2022/06/20 07:26:01;;;;;;;0.30;0.30;;;18.00;99.90;;;;;;5054860;28;20033;-73
2022/06/20 07:28:35;;;;;;;0.30;0.30;;;18.10;99.90;;;;;;5054951;28;20125;-73
2022/06/20 07:31:29;;;;;;;0.30;0.30;;;18.20;99.90;;;;;;5054897;28;20048;-74
2022/06/20 07:34:11;;;;;;;0.30;0.30;;;18.40;99.90;;;;;;5054620;28;20041;-74
2022/06/20 07:36:57;;;;;;;0.30;0.30;;;18.70;99.90;;;;;;5055152;28;20052;-74
2022/06/20 07:39:37;;;;;;;0.30;0.30;;;19.00;99.90;;;;;;5054614;28;20124;-74
2022/06/20 07:42:14;;;;;;;0.30;0.30;;;19.00;99.90;;;;;;5054166;28;20075;-74
2022/06/20 07:44:47;;;;;;;0.30;0.30;;;19.10;99.90;;;;;;5054424;28;20084;-73
2022/06/20 07:47:21;;;;;;;0.30;0.30;;;19.20;99.90;;;;;;5054776;28;20474;-73
2022/06/20 07:49:54;;;;;;;0.20;0.20;;;19.10;99.90;;;;;;5054579;28;20108;-74
2022/06/20 07:52:29;;;;;;;0.20;0.20;;;19.20;99.90;;;;;;5054363;28;20036;-73
2022/06/20 07:54:59;;;;;;;0.20;0.20;;;19.20;99.90;;;;;;5054810;28;20095;-74
2022/06/20 07:57:51;;;;;;;1.15;0.75;;;19.10;99.40;;;;;;5054406;28;20543;-74
2022/06/20 08:00:19;;;;;;;0.30;0.30;;;19.20;99.90;;;;;;5045006;28;20059;-74
2022/06/20 08:03:18;;;;;;;0.20;0.20;;;19.20;99.60;;;;;;5054062;28;20048;-74
2022/06/20 08:05:50;;;;;;;0.60;0.60;;;19.30;99.90;;;;;;5049265;28;20480;-74
2022/06/20 08:08:34;;;;;;;0.30;0.30;;;19.50;99.90;;;;;;5054357;28;20508;-74
2022/06/20 08:11:06;;;;;;;0.20;0.20;;;19.40;99.50;;;;;;5054132;28;20049;-74
2022/06/20 08:14:03;;;;;;;0.30;0.30;;;19.10;99.60;;;;;;5053943;28;20044;-74
2022/06/20 08:16:31;;;;;;;0.50;0.50;;;18.80;99.70;;;;;;5037755;28;20512;-74
2022/06/20 08:18:58;;;;;;;0.60;0.60;;;18.40;99.90;;;;;;5053903;28;20041;-74
2022/06/20 08:21:34;;;;;;;0.30;0.30;;;18.40;99.90;;;;;;5054142;28;20040;-74
2022/06/20 08:24:13;;;;;;;0.40;0.40;;;18.60;99.90;;;;;;5053766;28;20049;-74
2022/06/20 08:26:47;;;;;;;0.30;0.30;;;19.00;99.90;;;;;;5054196;28;20037;-74
2022/06/20 08:29:21;;;;;;;0.30;0.30;;;19.10;99.90;;;;;;5053851;28;20045;-74
2022/06/20 08:31:51;;;;;;;0.30;0.30;;;19.10;99.90;;;;;;5053698;28;20048;-74
2022/06/20 08:34:28;;;;;;;0.30;0.30;;;19.10;99.90;;;;;;5053597;28;20033;-74
2022/06/20 08:37:04;;;;;;;0.40;0.40;;;19.10;99.90;;;;;;5053683;28;20094;-74
2022/06/20 08:39:51;;;;;;;0.30;0.30;;;19.20;99.40;;;;;;5053972;28;20084;-74
2022/06/20 08:42:43;;;;;;;0.30;0.30;;;19.40;99.90;;;;;;5053658;28;20131;-74
2022/06/20 08:45:29;;;;;;;0.30;0.30;;;19.60;98.80;;;;;;5053470;28;20049;-74
2022/06/20 08:48:12;;;;;;;0.30;0.30;;;19.50;98.40;;;;;;5053664;28;20052;-74
2022/06/20 08:51:07;;;;;;;0.30;0.30;;;19.20;99.80;;;;;;5053515;28;20124;-74
2022/06/20 08:54:13;;;;;;;0.32;0.32;;;18.90;99.90;;;;;;5053318;28;20041;-74
2022/06/20 08:56:59;;;;;;;0.20;0.20;;;18.60;99.90;;;;;;5057623;28;20053;-74
2022/06/20 08:59:41;;;;;;;0.30;0.30;;;18.40;99.90;;;;;;5057456;28;20055;-73
2022/06/20 09:02:17;;;;;;;0.30;0.30;;;18.50;99.90;;;;;;5057565;28;20053;-74
2022/06/20 09:04:52;;;;;;;0.30;0.30;;;18.80;99.80;;;;;;5057851;28;20045;-74
2022/06/20 09:07:56;;;;;;;0.30;0.30;;;19.10;99.90;;;;;;5057414;28;20107;-73
2022/06/20 09:10:50;;;;;;;0.25;0.22;;;19.60;98.70;;;;;;5057351;28;20155;-73
2022/06/20 09:13:43;;;;;;;0.28;0.28;;;19.80;97.70;;;;;;5057530;28;20041;-73
2022/06/20 09:16:23;;;;;;;0.38;0.38;;;19.70;97.70;;;;;;5056950;28;20504;-73
2022/06/20 09:19:16;;;;;;;0.30;0.30;;;19.50;99.10;;;;;;5057599;28;20071;-74
2022/06/20 09:21:56;;;;;;;0.30;0.30;;;19.50;99.20;;;;;;5057132;28;20367;-74
2022/06/20 09:24:42;;;;;;;0.30;0.30;;;19.50;98.40;;;;;;5057208;28;20094;-74
2022/06/20 09:27:15;;;;;;;0.30;0.30;;;19.80;97.70;;;;;;5057528;28;20088;-74
2022/06/20 09:29:53;;;;;;;0.30;0.30;;;19.90;97.60;;;;;;5057073;28;20106;-74
2022/06/20 09:32:52;;;;;;;0.40;0.40;;;20.20;96.40;;;;;;5057035;28;20045;-73
2022/06/20 09:35:36;;;;;;;0.20;0.20;;;20.50;94.20;;;;;;5056927;28;20094;-73
2022/06/20 09:38:26;;;;;;;0.30;0.30;;;20.60;94.30;;;;;;5057214;28;20095;-73
2022/06/20 09:41:10;;;;;;;0.30;0.30;;;20.30;95.20;;;;;;5056959;28;20055;-73
2022/06/20 09:44:12;;;;;;;0.30;0.30;;;19.90;96.40;;;;;;5056792;28;20049;-74
2022/06/20 09:46:47;;;;;;;0.30;0.30;;;19.30;97.20;;;;;;5056685;28;20045;-74
2022/06/20 09:49:18;;;;;;;0.30;0.30;;;19.10;97.50;;;;;;5056682;28;20128;-74
2022/06/20 09:52:10;;;;;;;2.05;1.60;;;19.20;97.10;;;;;;5056596;28;20052;-74
2022/06/20 09:54:46;;;;;;;0.75;0.75;;;19.60;97.40;;;;;;5039095;28;20067;-74
2022/06/20 09:57:49;;;;;;;0.30;0.30;;;19.80;95.70;;;;;;5056550;28;20048;-74
2022/06/20 10:00:20;;;;;;;0.30;0.30;;;19.90;97.10;;;;;;5056365;28;20719;-74
2022/06/20 10:02:57;;;;;;;0.30;0.30;;;19.90;95.90;;;;;;5056433;28;20045;-74
2022/06/20 10:05:22;;;;;;;;;;;20.00;96.50;;;;;;5056508;28;20095;-73
2022/06/20 10:08:08;;;;;;;0.95;0.95;;;20.00;93.80;;;;;;5056397;28;20270;-73
2022/06/20 10:10:41;;;;;;;0.25;0.25;;;19.80;95.20;;;;;;5056272;28;20107;-74
2022/06/20 10:13:21;;;;;;;0.30;0.30;;;19.80;95.60;;;;;;5056087;28;20045;-74
2022/06/20 10:16:14;;;;;;;0.30;0.30;;;19.80;95.10;;;;;;5056108;28;20049;-74
2022/06/20 10:18:47;;;;;;;0.30;0.30;;;19.60;94.80;;;;;;5056158;28;20059;-74
2022/06/20 10:21:38;;;;;;;0.20;0.20;;;19.60;94.50;;;;;;5056141;28;20045;-74
2022/06/20 10:24:28;;;;;;;0.30;0.30;;;19.60;94.70;;;;;;5055948;28;20129;-74
2022/06/20 10:27:17;;;;;;;0.30;0.30;;;19.80;95.60;;;;;;5056008;28;20564;-73
2022/06/20 10:30:08;;;;;;;0.30;0.30;;;19.70;95.60;;;;;;5056557;28;20047;-74
2022/06/20 10:32:43;;;;;;;0.30;0.30;;;19.80;95.10;;;;;;5055910;28;20049;-73
2022/06/20 10:35:13;;;;;;;0.30;0.30;;;19.80;95.80;;;;;;5055763;28;20041;-74
2022/06/20 10:38:00;;;;;;;0.30;0.30;;;19.90;95.60;;;;;;5055683;28;20155;-73
2022/06/20 10:40:52;;;;;;;0.30;0.30;;;20.00;95.00;;;;;;5056029;28;20412;-74
2022/06/20 10:43:43;;;;;;;0.40;0.40;;;20.10;94.10;;;;;;5055663;28;20123;-74
2022/06/20 10:46:11;;;;;;;0.30;0.30;;;20.50;94.70;;;;;;5055567;28;20053;-75
2022/06/20 10:49:02;;;;;;;0.30;0.30;;;20.80;95.20;;;;;;5055579;28;20401;-74
2022/06/20 10:51:31;;;;;;;0.30;0.30;;;21.10;93.20;;;;;;5055877;28;20045;-74
2022/06/20 10:54:44;;;;;;;0.50;0.50;;;21.30;92.30;;;;;;5055379;28;20064;-74
2022/06/20 10:57:43;;;;;;;0.30;0.30;;;21.40;93.00;;;;;;4994607;28;20053;-74
2022/06/20 11:00:17;;;;;;;0.20;0.20;;;21.50;93.00;;;;;;5055077;28;20547;-74
2022/06/20 11:03:11;;;;;;;0.20;0.20;;;21.60;91.20;;;;;;5055339;28;20037;-74
2022/06/20 11:06:08;;;;;;;0.30;0.30;;;21.60;91.90;;;;;;5055601;28;20048;-74
2022/06/20 11:08:43;;;;;;;0.45;0.45;;;21.60;92.10;;;;;;5037848;28;20057;-74
2022/06/20 11:11:32;;;;;;;0.40;0.40;;;21.60;91.60;;;;;;5055200;28;20088;-74
2022/06/20 11:14:23;;;;;;;0.25;0.25;;;21.40;91.20;;;;;;5055050;28;20056;-74
2022/06/20 11:16:51;;;;;;;0.20;0.20;;;21.00;92.20;;;;;;5054782;28;20045;-74
2022/06/20 11:19:23;;;;;;;0.20;0.20;;;20.60;93.00;;;;;;5054792;28;20037;-74
2022/06/20 11:22:25;;;;;;;0.20;0.20;;;20.40;94.00;;;;;;5055405;28;20084;-74
2022/06/20 11:25:13;;;;;;;0.30;0.30;;;20.20;92.70;;;;;;5054973;28;20036;-74
2022/06/20 11:28:08;;;;;;;0.30;0.30;;;20.60;92.40;;;;;;5054838;28;20406;-74
2022/06/20 11:30:49;;;;;;;0.20;0.20;;;20.80;92.50;;;;;;5055077;28;20485;-74
2022/06/20 11:36:30;;;;;;;0.30;0.30;;;20.80;91.20;;;;;;5054613;28;20056;-74
2022/06/20 11:38:59;;;;;;;0.30;0.30;;;20.90;92.30;;;;;;5054646;28;20068;-73
2022/06/20 11:41:45;;;;;;;0.20;0.20;;;21.10;91.90;;;;;;5054433;28;20135;-73
2022/06/20 11:44:47;;;;;;;0.47;0.47;;;21.30;93.30;;;;;;5054567;28;20074;-74
2022/06/20 11:47:35;;;;;;;0.20;0.20;;;21.90;93.50;;;;;;5054465;28;20049;-74
2022/06/20 11:50:19;;;;;;;1.10;0.50;;;21.80;90.80;;;;;;5054487;28;20045;-74
2022/06/20 11:52:58;;;;;;;0.32;0.32;;;22.00;92.00;;;;;;5053962;28;20517;-74
2022/06/20 11:55:43;;;;;;;0.40;0.40;;;22.10;92.40;;;;;;5054327;28;20041;-74
2022/06/20 11:58:50;;;;;;;0.20;0.20;;;22.10;92.20;;;;;;5054437;28;20155;-74
2022/06/20 12:01:20;;;;;;;0.30;0.30;;;22.20;90.60;;;;;;5054255;28;20481;-74
2022/06/20 12:03:50;;;;;;;0.20;0.20;;;21.90;87.90;;;;;;5054671;28;20385;-74
2022/06/20 12:06:39;;;;;;;0.30;0.30;;;21.70;90.70;;;;;;5053922;28;20111;-75
2022/06/20 12:09:25;;;;;;;0.50;0.50;;;21.30;90.80;;;;;;5054143;28;20405;-74
2022/06/20 12:11:58;;;;;;;0.20;0.20;;;21.10;92.20;;;;;;5053961;28;20080;-74
2022/06/20 12:14:52;;;;;;;0.35;0.35;;;20.90;92.30;;;;;;5053943;28;20123;-73
2022/06/20 12:17:55;;;;;;;0.20;0.20;;;21.10;91.20;;;;;;5054132;28;20049;-73
2022/06/20 12:23:24;;;;;;;0.30;0.30;;;21.20;92.10;;;;;;5053913;28;20107;-74
2022/06/20 12:26:17;;;;;;;0.20;0.20;;;20.90;92.40;;;;;;5053863;28;20477;-73
2022/06/20 12:28:46;;;;;;;0.25;0.25;;;20.80;93.00;;;;;;5053707;28;20187;-73
2022/06/20 12:31:22;;;;;;;0.30;0.30;;;20.70;92.70;;;;;;5053703;28;20037;-73
2022/06/20 12:33:53;;;;;;;2.20;0.73;;;20.60;94.10;;;;;;5053787;28;20052;-74
2022/06/20 12:36:32;;;;;;;0.30;0.30;;;20.50;92.10;;;;;;5053678;28;20083;-74
2022/06/20 12:39:10;;;;;;;0.20;0.20;;;20.50;91.40;;;;;;5053429;28;20554;-74
2022/06/20 12:41:41;;;;;;;0.20;0.20;;;20.90;91.50;;;;;;5054262;28;20098;-73
2022/06/20 12:44:30;;;;;;;0.63;0.63;;;21.40;92.20;;;;;;5053943;28;20098;-73
2022/06/20 12:46:57;;;;;;;0.20;0.20;;;21.70;92.70;;;;;;5053644;28;20064;-73
2022/06/20 12:49:54;;;;;;;0.25;0.25;;;21.80;92.40;;;;;;5053453;28;20507;-75
2022/06/20 12:52:32;;;;;;;0.28;0.28;;;21.70;91.50;;;;;;5053869;28;20060;-74
2022/06/20 12:55:14;;;;;;;0.50;0.50;;;21.80;92.40;;;;;;5053427;28;20080;-73
2022/06/20 12:57:52;;;;;;;0.30;0.30;;;21.80;91.30;;;;;;5053592;28;20045;-73
2022/06/20 13:00:20;;;;;;;;;;;21.80;91.00;;;;;;5053966;28;20044;-73
2022/06/20 13:02:51;;;;;;;0.20;0.20;;;21.50;89.50;;;;;;5053424;28;19932;-73
2022/06/20 13:05:44;;;;;;;0.40;0.40;;;21.40;90.10;;;;;;5053618;28;20386;-73
2022/06/20 13:08:24;;;;;;;0.20;0.20;;;21.50;91.00;;;;;;5053352;28;20477;-73
2022/06/20 13:11:06;;;;;;;0.30;0.30;;;21.80;90.70;;;;;;5035746;28;20088;-73
2022/06/20 13:13:47;;;;;;;0.22;0.22;;;21.90;90.30;;;;;;5053593;28;20087;-73
2022/06/20 13:16:24;;;;;;;0.40;0.40;;;21.70;90.10;;;;;;5053258;28;20083;-75
2022/06/20 13:19:11;;;;;;;0.82;0.75;;;21.70;90.00;;;;;;5053522;28;20115;-74
2022/06/20 13:21:55;;;;;;;0.20;0.20;;;21.60;90.60;;;;;;5053280;28;20045;-74
2022/06/20 13:24:45;;;;;;;0.40;0.40;;;21.40;91.40;;;;;;5053191;28;20500;-74
2022/06/20 13:27:34;;;;;;;0.30;0.30;;;21.20;92.70;;;;;;5053160;28;20049;-74
2022/06/20 13:30:19;;;;;;;0.40;0.40;;;20.80;92.60;;;;;;5053324;28;20045;-74
2022/06/20 13:32:50;;;;;;;0.20;0.20;;;20.70;93.70;;;;;;5053094;28;20603;-74
2022/06/20 13:35:33;;;;;;;0.30;0.30;;;20.80;93.50;;;;;;5053228;28;20041;-75
2022/06/20 13:38:02;;;;;;;0.40;0.40;;;21.00;93.40;;;;;;5053537;28;20080;-74
2022/06/20 13:40:38;;;;;;;0.20;0.20;;;21.10;93.10;;;;;;5054155;28;20438;-75
2022/06/20 13:43:23;;;;;;;0.30;0.30;;;21.00;93.00;;;;;;5057144;28;20052;-75
2022/06/20 13:46:18;;;;;;;0.20;0.20;;;20.70;92.60;;;;;;5056808;28;20048;-74
2022/06/20 13:48:55;;;;;;;0.22;0.22;;;20.50;92.20;;;;;;5027842;28;20052;-74
2022/06/20 13:51:40;;;;;;;0.30;0.30;;;20.50;92.00;;;;;;5056994;28;20041;-75
2022/06/20 13:54:21;;;;;;;0.20;0.20;;;20.50;92.10;;;;;;5056484;28;20045;-75
2022/06/20 13:57:13;;;;;;;0.20;0.20;;;20.50;92.60;;;;;;5056621;28;20139;-75
2022/06/20 14:00:00;;;;;;;0.30;0.30;;;20.60;92.70;;;;;;5056244;28;20477;-74
2022/06/20 14:02:35;;;;;;;0.30;0.30;;;20.50;91.50;;;;;;5056535;28;20118;-74